sensor_id;sensor_type;location;lat;lon;timestamp;pressure;altitude;pressure_sealevel;temperature;humidity
70954;BME280;58618;47.490;8.736;2023-02-12T00:02:25;98431.97;;;-3.85;100.00
70954;BME280;58618;47.490;8.736;2023-02-12T00:04:55;98427.44;;;-3.91;100.00
70954;BME280;58618;47.490;8.736;2023-02-12T00:07:22;98422.56;;;-3.92;100.00
70954;BME280;58618;47.490;8.736;2023-02-12T00:09:49;98425.06;;;-3.83;100.00
70954;BME280;58618;47.490;8.736;2023-02-12T00:12:17;98426.09;;;-3.56;100.00
70954;BME280;58618;47.490;8.736;2023-02-12T00:14:44;98430.06;;;-3.44;100.00
70954;BME280;58618;47.490;8.736;2023-02-12T00:17:11;98428.06;;;-3.50;100.00
70954;BME280;58618;47.490;8.736;2023-02-12T00:19:38;98418.41;;;-3.64;100.00
70954;BME280;58618;47.490;8.736;2023-02-12T00:22:07;98427.69;;;-3.55;100.00
70954;BME280;58618;47.490;8.736;2023-02-12T00:24:34;98426.75;;;-3.54;100.00
70954;BME280;58618;47.490;8.736;2023-02-12T00:27:01;98427.03;;;-3.57;100.00
70954;BME280;58618;47.490;8.736;2023-02-12T00:29:29;98425.03;;;-3.63;100.00
70954;BME280;58618;47.490;8.736;2023-02-12T00:31:55;98412.97;;;-3.79;100.00
70954;BME280;58618;47.490;8.736;2023-02-12T00:34:23;98417.38;;;-3.91;100.00
70954;BME280;58618;47.490;8.736;2023-02-12T00:36:50;98421.38;;;-3.98;100.00
70954;BME280;58618;47.490;8.736;2023-02-12T00:39:19;98423.75;;;-3.87;100.00
70954;BME280;58618;47.490;8.736;2023-02-12T00:41:46;98418.72;;;-3.87;100.00
70954;BME280;58618;47.490;8.736;2023-02-12T00:44:13;98430.38;;;-3.86;100.00
70954;BME280;58618;47.490;8.736;2023-02-12T00:46:40;98435.97;;;-3.92;100.00
70954;BME280;58618;47.490;8.736;2023-02-12T00:49:08;98443.38;;;-4.00;100.00
70954;BME280;58618;47.490;8.736;2023-02-12T00:51:35;98452.94;;;-3.94;100.00
70954;BME280;58618;47.490;8.736;2023-02-12T00:54:03;98449.50;;;-3.93;100.00
70954;BME280;58618;47.490;8.736;2023-02-12T00:56:31;98441.53;;;-3.98;100.00
70954;BME280;58618;47.490;8.736;2023-02-12T00:58:58;98436.50;;;-3.98;100.00
70954;BME280;58618;47.490;8.736;2023-02-12T01:01:25;98421.38;;;-3.98;100.00
70954;BME280;58618;47.490;8.736;2023-02-12T01:03:52;98429.59;;;-3.86;100.00
70954;BME280;58618;47.490;8.736;2023-02-12T01:06:20;98430.66;;;-3.89;100.00
70954;BME280;58618;47.490;8.736;2023-02-12T01:08:49;98430.94;;;-3.92;100.00
70954;BME280;58618;47.490;8.736;2023-02-12T01:11:16;98432.25;;;-3.88;100.00
70954;BME280;58618;47.490;8.736;2023-02-12T01:13:46;98429.44;;;-3.85;100.00
70954;BME280;58618;47.490;8.736;2023-02-12T01:16:17;98425.34;;;-3.76;100.00
70954;BME280;58618;47.490;8.736;2023-02-12T01:18:45;98413.66;;;-3.77;100.00
70954;BME280;58618;47.490;8.736;2023-02-12T01:21:14;98435.41;;;-3.66;100.00
70954;BME280;58618;47.490;8.736;2023-02-12T01:23:43;98435.66;;;-3.79;100.00
70954;BME280;58618;47.490;8.736;2023-02-12T01:26:11;98426.78;;;-3.73;100.00
70954;BME280;58618;47.490;8.736;2023-02-12T01:28:41;98424.78;;;-3.60;100.00
70954;BME280;58618;47.490;8.736;2023-02-12T01:31:12;98433.13;;;-3.50;100.00
70954;BME280;58618;47.490;8.736;2023-02-12T01:33:40;98428.47;;;-3.64;100.00
70954;BME280;58618;47.490;8.736;2023-02-12T01:36:11;98420.66;;;-3.80;100.00
70954;BME280;58618;47.490;8.736;2023-02-12T01:38:39;98420.66;;;-3.80;100.00
70954;BME280;58618;47.490;8.736;2023-02-12T01:41:07;98427.06;;;-3.76;100.00
70954;BME280;58618;47.490;8.736;2023-02-12T01:43:36;98424.00;;;-3.90;100.00
70954;BME280;58618;47.490;8.736;2023-02-12T01:46:05;98424.81;;;-3.99;100.00
70954;BME280;58618;47.490;8.736;2023-02-12T01:48:36;98430.91;;;-4.01;100.00
70954;BME280;58618;47.490;8.736;2023-02-12T01:51:06;98433.28;;;-4.00;100.00
70954;BME280;58618;47.490;8.736;2023-02-12T01:53:38;98427.72;;;-3.84;100.00
70954;BME280;58618;47.490;8.736;2023-02-12T01:56:10;98422.78;;;-3.66;100.00
70954;BME280;58618;47.490;8.736;2023-02-12T01:58:39;98413.63;;;-3.67;100.00
70954;BME280;58618;47.490;8.736;2023-02-12T02:01:10;98407.94;;;-3.60;100.00
70954;BME280;58618;47.490;8.736;2023-02-12T02:03:41;98417.34;;;-3.62;100.00
70954;BME280;58618;47.490;8.736;2023-02-12T02:06:14;98415.50;;;-3.69;100.00
70954;BME280;58618;47.490;8.736;2023-02-12T02:08:43;98404.91;;;-3.83;100.00
70954;BME280;58618;47.490;8.736;2023-02-12T02:11:10;98410.22;;;-3.95;100.00
70954;BME280;58618;47.490;8.736;2023-02-12T02:13:51;98398.03;;;-4.09;100.00
70954;BME280;58618;47.490;8.736;2023-02-12T02:16:37;98403.06;;;-4.00;100.00
70954;BME280;58618;47.490;8.736;2023-02-12T02:19:18;98405.97;;;-3.95;100.00
70954;BME280;58618;47.490;8.736;2023-02-12T02:22:05;98396.94;;;-4.07;100.00
70954;BME280;58618;47.490;8.736;2023-02-12T02:25:10;98397.75;;;-4.16;100.00
70954;BME280;58618;47.490;8.736;2023-02-12T02:27:47;98400.03;;;-4.13;100.00
70954;BME280;58618;47.490;8.736;2023-02-12T02:30:31;98408.09;;;-4.00;100.00
70954;BME280;58618;47.490;8.736;2023-02-12T02:33:10;98412.31;;;-3.91;100.00
70954;BME280;58618;47.490;8.736;2023-02-12T02:35:45;98411.81;;;-3.94;100.00
70954;BME280;58618;47.490;8.736;2023-02-12T02:38:21;98395.88;;;-3.95;100.00
70954;BME280;58618;47.490;8.736;2023-02-12T02:40:54;98388.84;;;-3.91;100.00
70954;BME280;58618;47.490;8.736;2023-02-12T02:43:28;98398.03;;;-4.00;100.00
70954;BME280;58618;47.490;8.736;2023-02-12T02:46:01;98392.47;;;-4.13;100.00
70954;BME280;58618;47.490;8.736;2023-02-12T02:48:34;98398.44;;;-4.14;100.00
70954;BME280;58618;47.490;8.736;2023-02-12T02:51:09;98398.28;;;-4.22;100.00
70954;BME280;58618;47.490;8.736;2023-02-12T02:53:41;98404.78;;;-4.29;100.00
70954;BME280;58618;47.490;8.736;2023-02-12T02:56:13;98400.69;;;-4.20;100.00
70954;BME280;58618;47.490;8.736;2023-02-12T02:58:45;98402.56;;;-4.13;100.00
70954;BME280;58618;47.490;8.736;2023-02-12T03:01:18;98390.09;;;-4.24;100.00
70954;BME280;58618;47.490;8.736;2023-02-12T03:03:50;98401.59;;;-4.31;100.00
70954;BME280;58618;47.490;8.736;2023-02-12T03:06:26;98405.72;;;-4.30;100.00
70954;BME280;58618;47.490;8.736;2023-02-12T03:08:58;98393.25;;;-4.32;100.00
70954;BME280;58618;47.490;8.736;2023-02-12T03:11:29;98397.13;;;-4.18;100.00
70954;BME280;58618;47.490;8.736;2023-02-12T03:14:02;98393.53;;;-4.25;100.00
70954;BME280;58618;47.490;8.736;2023-02-12T03:16:38;98403.06;;;-4.19;100.00
70954;BME280;58618;47.490;8.736;2023-02-12T03:19:10;98398.94;;;-4.01;100.00
70954;BME280;58618;47.490;8.736;2023-02-12T03:21:41;98406.25;;;-3.98;100.00
70954;BME280;58618;47.490;8.736;2023-02-12T03:24:13;98401.34;;;-3.99;100.00
70954;BME280;58618;47.490;8.736;2023-02-12T03:26:45;98401.75;;;-4.04;100.00
70954;BME280;58618;47.490;8.736;2023-02-12T03:29:15;98402.81;;;-3.97;100.00
70954;BME280;58618;47.490;8.736;2023-02-12T03:31:58;98402.00;;;-4.07;100.00
70954;BME280;58618;47.490;8.736;2023-02-12T03:34:35;98399.47;;;-4.07;100.00
70954;BME280;58618;47.490;8.736;2023-02-12T03:37:07;98397.88;;;-4.17;100.00
70954;BME280;58618;47.490;8.736;2023-02-12T03:39:42;98387.94;;;-4.38;100.00
70954;BME280;58618;47.490;8.736;2023-02-12T03:42:13;98390.47;;;-4.29;100.00
70954;BME280;58618;47.490;8.736;2023-02-12T03:44:51;98393.53;;;-4.25;100.00
70954;BME280;58618;47.490;8.736;2023-02-12T03:47:24;98399.59;;;-4.37;100.00
70954;BME280;58618;47.490;8.736;2023-02-12T03:49:59;98394.03;;;-4.50;100.00
70954;BME280;58618;47.490;8.736;2023-02-12T03:52:28;98384.22;;;-4.53;100.00
70954;BME280;58618;47.490;8.736;2023-02-12T03:54:56;98385.19;;;-4.35;100.00
70954;BME280;58618;47.490;8.736;2023-02-12T03:57:26;98385.97;;;-4.25;100.00
70954;BME280;58618;47.490;8.736;2023-02-12T03:59:56;98393.00;;;-4.19;100.00
70954;BME280;58618;47.490;8.736;2023-02-12T04:02:26;98391.94;;;-4.26;100.00
70954;BME280;58618;47.490;8.736;2023-02-12T04:04:54;98398.81;;;-4.28;100.00
70954;BME280;58618;47.490;8.736;2023-02-12T04:07:21;98391.94;;;-4.26;100.00
70954;BME280;58618;47.490;8.736;2023-02-12T04:09:49;98399.09;;;-4.31;100.00
70954;BME280;58618;47.490;8.736;2023-02-12T04:12:33;98387.13;;;-4.48;100.00
70954;BME280;58618;47.490;8.736;2023-02-12T04:15:15;98405.84;;;-4.41;100.00
70954;BME280;58618;47.490;8.736;2023-02-12T04:17:49;98406.75;;;-4.42;100.00
70954;BME280;58618;47.490;8.736;2023-02-12T04:20:26;98410.19;;;-4.43;100.00
70954;BME280;58618;47.490;8.736;2023-02-12T04:23:07;98401.47;;;-4.39;100.00
70954;BME280;58618;47.490;8.736;2023-02-12T04:25:48;98424.78;;;-4.37;100.00
70954;BME280;58618;47.490;8.736;2023-02-12T04:28:26;98427.72;;;-4.32;100.00
70954;BME280;58618;47.490;8.736;2023-02-12T04:30:58;98426.38;;;-4.27;100.00
70954;BME280;58618;47.490;8.736;2023-02-12T04:33:33;98426.38;;;-4.27;100.00
70954;BME280;58618;47.490;8.736;2023-02-12T04:36:08;98427.31;;;-4.37;100.00
70954;BME280;58618;47.490;8.736;2023-02-12T04:38:40;98425.88;;;-4.30;100.00
70954;BME280;58618;47.490;8.736;2023-02-12T04:41:10;98411.41;;;-4.38;100.00
70954;BME280;58618;47.490;8.736;2023-02-12T04:43:37;98425.06;;;-4.50;100.00
70954;BME280;58618;47.490;8.736;2023-02-12T04:46:06;98421.06;;;-4.52;100.00
70954;BME280;58618;47.490;8.736;2023-02-12T04:48:36;98421.47;;;-4.47;100.00
70954;BME280;58618;47.490;8.736;2023-02-12T04:51:10;98433.00;;;-4.45;100.00
70954;BME280;58618;47.490;8.736;2023-02-12T04:53:37;98432.22;;;-4.36;100.00
70954;BME280;58618;47.490;8.736;2023-02-12T04:56:07;98432.75;;;-4.32;100.00
70954;BME280;58618;47.490;8.736;2023-02-12T04:58:35;98426.66;;;-4.39;100.00
70954;BME280;58618;47.490;8.736;2023-02-12T05:01:03;98436.59;;;-4.38;100.00
70954;BME280;58618;47.490;8.736;2023-02-12T05:03:30;98437.25;;;-4.26;100.00
70954;BME280;58618;47.490;8.736;2023-02-12T05:06:02;98433.56;;;-4.22;100.00
70954;BME280;58618;47.490;8.736;2023-02-12T05:08:29;98434.91;;;-4.18;100.00
70954;BME280;58618;47.490;8.736;2023-02-12T05:10:56;98425.47;;;-4.16;100.00
70954;BME280;58618;47.490;8.736;2023-02-12T05:13:24;98428.78;;;-4.25;100.00
70954;BME280;58618;47.490;8.736;2023-02-12T05:15:51;98431.94;;;-4.42;100.00
70954;BME280;58618;47.490;8.736;2023-02-12T05:18:18;98424.00;;;-4.28;100.00
70954;BME280;58618;47.490;8.736;2023-02-12T05:20:54;98408.47;;;-4.33;100.00
70954;BME280;58618;47.490;8.736;2023-02-12T05:23:24;98417.38;;;-4.29;100.00
70954;BME280;58618;47.490;8.736;2023-02-12T05:25:53;98415.00;;;-4.40;100.00
70954;BME280;58618;47.490;8.736;2023-02-12T05:28:21;98416.31;;;-4.27;100.00
70954;BME280;58618;47.490;8.736;2023-02-12T05:30:50;98413.41;;;-4.22;100.00
70954;BME280;58618;47.490;8.736;2023-02-12T05:33:18;98415.00;;;-4.21;100.00
70954;BME280;58618;47.490;8.736;2023-02-12T05:35:45;98415.28;;;-4.24;100.00
70954;BME280;58618;47.490;8.736;2023-02-12T05:38:13;98410.22;;;-4.24;100.00
70954;BME280;58618;47.490;8.736;2023-02-12T05:40:41;98417.38;;;-4.29;100.00
70954;BME280;58618;47.490;8.736;2023-02-12T05:43:08;98409.03;;;-4.20;100.00
70954;BME280;58618;47.490;8.736;2023-02-12T05:45:36;98415.00;;;-4.21;100.00
70954;BME280;58618;47.490;8.736;2023-02-12T05:48:08;98417.50;;;-4.21;100.00
70954;BME280;58618;47.490;8.736;2023-02-12T05:50:35;98405.03;;;-4.22;100.00
70954;BME280;58618;47.490;8.736;2023-02-12T05:53:11;98410.75;;;-4.11;100.00
70954;BME280;58618;47.490;8.736;2023-02-12T05:55:38;98407.03;;;-4.07;100.00
70954;BME280;58618;47.490;8.736;2023-02-12T05:58:08;98402.78;;;-4.16;100.00
70954;BME280;58618;47.490;8.736;2023-02-12T06:00:35;98406.78;;;-4.23;100.00
70954;BME280;58618;47.490;8.736;2023-02-12T06:03:02;98405.72;;;-4.30;100.00
70954;BME280;58618;47.490;8.736;2023-02-12T06:05:30;98410.75;;;-4.20;100.00
70954;BME280;58618;47.490;8.736;2023-02-12T06:07:57;98394.84;;;-4.11;100.00
70954;BME280;58618;47.490;8.736;2023-02-12T06:10:24;98399.06;;;-4.12;100.00
70954;BME280;58618;47.490;8.736;2023-02-12T06:12:53;98395.38;;;-4.08;100.00
70954;BME280;58618;47.490;8.736;2023-02-12T06:15:21;98403.47;;;-4.14;100.00
70954;BME280;58618;47.490;8.736;2023-02-12T06:17:49;98409.44;;;-4.15;100.00
70954;BME280;58618;47.490;8.736;2023-02-12T06:20:17;98400.03;;;-4.13;100.00
70954;BME280;58618;47.490;8.736;2023-02-12T06:22:45;98397.50;;;-4.13;100.00
70954;BME280;58618;47.490;8.736;2023-02-12T06:25:13;98395.13;;;-4.14;100.00
70954;BME280;58618;47.490;8.736;2023-02-12T06:27:41;98397.75;;;-4.16;100.00
70954;BME280;58618;47.490;8.736;2023-02-12T06:30:10;98408.63;;;-4.06;100.00
70954;BME280;58618;47.490;8.736;2023-02-12T06:32:39;98405.06;;;-3.94;100.00
70954;BME280;58618;47.490;8.736;2023-02-12T06:35:06;98409.81;;;-3.91;100.00
70954;BME280;58618;47.490;8.736;2023-02-12T06:37:34;98403.31;;;-3.84;100.00
70954;BME280;58618;47.490;8.736;2023-02-12T06:40:05;98404.38;;;-3.76;100.00
70954;BME280;58618;47.490;8.736;2023-02-12T06:42:33;98406.91;;;-3.76;100.00
70954;BME280;58618;47.490;8.736;2023-02-12T06:45:01;98409.81;;;-3.71;100.00
70954;BME280;58618;47.490;8.736;2023-02-12T06:47:29;98411.53;;;-3.81;100.00
70954;BME280;58618;47.490;8.736;2023-02-12T06:49:57;98400.66;;;-3.72;100.00
70954;BME280;58618;47.490;8.736;2023-02-12T06:52:24;98400.09;;;-3.66;100.00
70954;BME280;58618;47.490;8.736;2023-02-12T06:54:53;98409.91;;;-3.63;100.00
70954;BME280;58618;47.490;8.736;2023-02-12T06:57:20;98417.38;;;-3.71;100.00
70954;BME280;58618;47.490;8.736;2023-02-12T06:59:48;98411.00;;;-3.66;100.00
70954;BME280;58618;47.490;8.736;2023-02-12T07:02:15;98414.84;;;-3.71;100.00
70954;BME280;58618;47.490;8.736;2023-02-12T07:04:42;98420.13;;;-3.55;100.00
70954;BME280;58618;47.490;8.736;2023-02-12T07:07:11;98419.31;;;-3.46;100.00
70954;BME280;58618;47.490;8.736;2023-02-12T07:09:38;98418.16;;;-2.87;100.00
70954;BME280;58618;47.490;8.736;2023-02-12T07:12:06;98424.75;;;-2.32;100.00
70954;BME280;58618;47.490;8.736;2023-02-12T07:14:33;98412.66;;;-1.85;100.00
70954;BME280;58618;47.490;8.736;2023-02-12T07:17:00;98418.34;;;-1.39;100.00
70954;BME280;58618;47.490;8.736;2023-02-12T07:19:29;98426.03;;;-0.89;100.00
70954;BME280;58618;47.490;8.736;2023-02-12T07:21:57;98409.34;;;-0.58;100.00
70954;BME280;58618;47.490;8.736;2023-02-12T07:24:37;98424.97;;;-0.12;98.76
70954;BME280;58618;47.490;8.736;2023-02-12T07:27:05;98419.59;;;0.15;97.72
70954;BME280;58618;47.490;8.736;2023-02-12T07:29:33;98422.25;;;0.54;95.09
70954;BME280;58618;47.490;8.736;2023-02-12T07:32:00;98420.53;;;0.47;96.78
70954;BME280;58618;47.490;8.736;2023-02-12T07:34:28;98419.59;;;0.31;95.96
70954;BME280;58618;47.490;8.736;2023-02-12T07:36:56;98423.50;;;0.58;94.77
70954;BME280;58618;47.490;8.736;2023-02-12T07:39:23;98421.75;;;0.67;94.05
70954;BME280;58618;47.490;8.736;2023-02-12T07:41:52;98421.47;;;0.21;96.09
70954;BME280;58618;47.490;8.736;2023-02-12T07:44:19;98428.13;;;-0.10;100.00
70954;BME280;58618;47.490;8.736;2023-02-12T07:46:48;98421.75;;;-0.30;100.00
70954;BME280;58618;47.490;8.736;2023-02-12T07:49:18;98424.63;;;-0.33;100.00
70954;BME280;58618;47.490;8.736;2023-02-12T07:51:46;98426.50;;;-0.44;100.00
70954;BME280;58618;47.490;8.736;2023-02-12T07:54:14;98420.13;;;-0.48;100.00
70954;BME280;58618;47.490;8.736;2023-02-12T07:56:43;98407.13;;;-0.69;100.00
70954;BME280;58618;47.490;8.736;2023-02-12T07:59:15;98429.94;;;-0.61;100.00
70954;BME280;58618;47.490;8.736;2023-02-12T08:01:45;98422.34;;;-0.53;100.00
70954;BME280;58618;47.490;8.736;2023-02-12T08:04:15;98407.59;;;-0.65;100.00
70954;BME280;58618;47.490;8.736;2023-02-12T08:06:45;98413.97;;;-0.45;100.00
70954;BME280;58618;47.490;8.736;2023-02-12T08:09:15;98415.94;;;0.18;100.00
70954;BME280;58618;47.490;8.736;2023-02-12T08:11:43;98421.38;;;0.86;100.00
70954;BME280;58618;47.490;8.736;2023-02-12T08:14:13;98419.88;;;1.47;100.00
70954;BME280;58618;47.490;8.736;2023-02-12T08:16:42;98413.91;;;1.85;96.57
70954;BME280;58618;47.490;8.736;2023-02-12T08:19:10;98424.97;;;2.38;95.86
70954;BME280;58618;47.490;8.736;2023-02-12T08:21:37;98388.38;;;2.53;94.30
70954;BME280;58618;47.490;8.736;2023-02-12T08:24:05;98401.34;;;3.03;92.31
70954;BME280;58618;47.490;8.736;2023-02-12T08:26:34;98415.16;;;3.08;89.96
70954;BME280;58618;47.490;8.736;2023-02-12T08:29:04;98426.00;;;3.46;89.16
70954;BME280;58618;47.490;8.736;2023-02-12T08:31:35;98425.16;;;3.60;86.79
70954;BME280;58618;47.490;8.736;2023-02-12T08:34:03;98418.75;;;3.64;86.02
70954;BME280;58618;47.490;8.736;2023-02-12T08:36:35;98417.06;;;3.93;84.46
70954;BME280;58618;47.490;8.736;2023-02-12T08:39:05;98397.84;;;3.97;83.33
70954;BME280;58618;47.490;8.736;2023-02-12T08:41:34;98426.69;;;4.18;83.34
70954;BME280;58618;47.490;8.736;2023-02-12T08:44:05;98415.22;;;4.08;81.29
70954;BME280;58618;47.490;8.736;2023-02-12T08:46:35;98412.22;;;4.25;80.90
70954;BME280;58618;47.490;8.736;2023-02-12T08:49:10;98421.50;;;4.54;79.13
70954;BME280;58618;47.490;8.736;2023-02-12T08:51:39;98415.91;;;4.44;80.63
70954;BME280;58618;47.490;8.736;2023-02-12T08:54:11;98410.44;;;3.98;81.49
70954;BME280;58618;47.490;8.736;2023-02-12T08:56:39;98406.34;;;3.82;82.02
70954;BME280;58618;47.490;8.736;2023-02-12T08:59:07;98413.00;;;3.41;85.72
70954;BME280;58618;47.490;8.736;2023-02-12T09:01:37;98407.84;;;3.20;87.04
70954;BME280;58618;47.490;8.736;2023-02-12T09:04:13;98399.13;;;3.29;86.45
70954;BME280;58618;47.490;8.736;2023-02-12T09:06:43;98404.13;;;3.37;86.84
70954;BME280;58618;47.490;8.736;2023-02-12T09:09:11;98398.41;;;3.35;88.47
70954;BME280;58618;47.490;8.736;2023-02-12T09:11:38;98396.00;;;3.48;90.29
70954;BME280;58618;47.490;8.736;2023-02-12T09:14:10;98375.84;;;3.53;89.62
70954;BME280;58618;47.490;8.736;2023-02-12T09:16:39;98391.41;;;3.79;88.21
70954;BME280;58618;47.490;8.736;2023-02-12T09:19:07;98385.94;;;3.82;88.60
70954;BME280;58618;47.490;8.736;2023-02-12T09:21:34;98374.63;;;3.70;87.63
70954;BME280;58618;47.490;8.736;2023-02-12T09:24:02;98387.53;;;3.83;87.97
70954;BME280;58618;47.490;8.736;2023-02-12T09:26:29;98388.13;;;3.64;89.83
70954;BME280;58618;47.490;8.736;2023-02-12T09:28:57;98380.47;;;3.43;90.33
70954;BME280;58618;47.490;8.736;2023-02-12T09:31:26;98383.13;;;3.56;89.86
70954;BME280;58618;47.490;8.736;2023-02-12T09:33:58;98382.03;;;3.44;91.37
70954;BME280;58618;47.490;8.736;2023-02-12T09:36:25;98383.44;;;3.68;90.09
70954;BME280;58618;47.490;8.736;2023-02-12T09:38:53;98385.59;;;3.86;90.13
70954;BME280;58618;47.490;8.736;2023-02-12T09:41:41;98376.28;;;3.99;89.65
70954;BME280;58618;47.490;8.736;2023-02-12T09:44:18;98375.94;;;4.09;88.89
70954;BME280;58618;47.490;8.736;2023-02-12T09:46:49;98373.28;;;4.17;89.72
70954;BME280;58618;47.490;8.736;2023-02-12T09:49:25;98371.94;;;4.21;89.56
70954;BME280;58618;47.490;8.736;2023-02-12T09:52:00;98372.94;;;4.27;89.11
70954;BME280;58618;47.490;8.736;2023-02-12T09:54:34;98366.25;;;4.25;88.97
70954;BME280;58618;47.490;8.736;2023-02-12T09:57:18;98375.31;;;4.28;89.73
70954;BME280;58618;47.490;8.736;2023-02-12T09:59:50;98368.44;;;4.29;90.30
70954;BME280;58618;47.490;8.736;2023-02-12T10:02:19;98374.31;;;4.29;90.27
70954;BME280;58618;47.490;8.736;2023-02-12T10:04:50;98366.66;;;4.29;89.70
70954;BME280;58618;47.490;8.736;2023-02-12T10:07:30;98367.84;;;4.54;89.27
70954;BME280;58618;47.490;8.736;2023-02-12T10:10:08;98370.16;;;4.49;88.66
70954;BME280;58618;47.490;8.736;2023-02-12T10:12:47;98375.41;;;4.41;88.48
70954;BME280;58618;47.490;8.736;2023-02-12T10:15:24;98368.81;;;4.53;89.76
70954;BME280;58618;47.490;8.736;2023-02-12T10:18:00;98369.38;;;4.55;87.91
70954;BME280;58618;47.490;8.736;2023-02-12T10:20:51;98361.44;;;4.72;87.75
70954;BME280;58618;47.490;8.736;2023-02-12T10:23:27;98365.44;;;4.81;87.79
70954;BME280;58618;47.490;8.736;2023-02-12T10:26:08;98364.56;;;4.67;87.02
70954;BME280;58618;47.490;8.736;2023-02-12T10:28:38;98371.28;;;4.75;87.17
70954;BME280;58618;47.490;8.736;2023-02-12T10:31:11;98353.09;;;4.91;86.76
70954;BME280;58618;47.490;8.736;2023-02-12T10:33:43;98363.13;;;4.99;87.47
70954;BME280;58618;47.490;8.736;2023-02-12T10:36:24;98363.66;;;4.88;86.69
70954;BME280;58618;47.490;8.736;2023-02-12T10:38:56;98357.88;;;5.07;86.62
70954;BME280;58618;47.490;8.736;2023-02-12T10:41:27;98355.91;;;5.16;86.40
70954;BME280;58618;47.490;8.736;2023-02-12T10:43:56;98354.56;;;5.26;86.98
70954;BME280;58618;47.490;8.736;2023-02-12T10:46:23;98345.88;;;5.14;86.14
70954;BME280;58618;47.490;8.736;2023-02-12T10:48:52;98330.16;;;5.17;86.00
70954;BME280;58618;47.490;8.736;2023-02-12T10:51:39;98336.66;;;5.26;86.71
70954;BME280;58618;47.490;8.736;2023-02-12T10:54:30;98338.84;;;5.36;86.78
70954;BME280;58618;47.490;8.736;2023-02-12T10:56:57;98333.00;;;5.55;85.92
70954;BME280;58618;47.490;8.736;2023-02-12T10:59:25;98330.63;;;5.53;86.02
70954;BME280;58618;47.490;8.736;2023-02-12T11:01:53;98327.88;;;5.62;85.90
70954;BME280;58618;47.490;8.736;2023-02-12T11:04:25;98323.94;;;5.79;nan
70954;BME280;58618;47.490;8.736;2023-02-12T11:06:58;98323.00;;;5.93;84.46
70954;BME280;58618;47.490;8.736;2023-02-12T11:09:28;98318.84;;;5.99;84.16
70954;BME280;58618;47.490;8.736;2023-02-12T11:11:55;98319.25;;;5.89;84.38
70954;BME280;58618;47.490;8.736;2023-02-12T11:14:23;98315.13;;;6.01;84.46
70954;BME280;58618;47.490;8.736;2023-02-12T11:16:52;98305.66;;;6.02;84.37
70954;BME280;58618;47.490;8.736;2023-02-12T11:19:20;98313.13;;;6.16;83.72
70954;BME280;58618;47.490;8.736;2023-02-12T11:21:48;98306.22;;;6.23;83.35
70954;BME280;58618;47.490;8.736;2023-02-12T11:24:30;98303.88;;;6.28;83.16
70954;BME280;58618;47.490;8.736;2023-02-12T11:27:21;98306.56;;;6.47;83.20
70954;BME280;58618;47.490;8.736;2023-02-12T11:30:11;98292.75;;;6.48;82.74
70954;BME280;58618;47.490;8.736;2023-02-12T11:32:39;98298.66;;;6.55;83.17
70954;BME280;58618;47.490;8.736;2023-02-12T11:35:12;98299.41;;;6.62;83.05
70954;BME280;58618;47.490;8.736;2023-02-12T11:37:41;98279.72;;;6.56;82.62
70954;BME280;58618;47.490;8.736;2023-02-12T11:40:19;98288.75;;;6.71;82.57
70954;BME280;58618;47.490;8.736;2023-02-12T11:42:50;98293.81;;;6.85;80.85
70954;BME280;58618;47.490;8.736;2023-02-12T11:45:29;98286.75;;;6.80;80.87
70954;BME280;58618;47.490;8.736;2023-02-12T11:47:57;98296.56;;;6.90;80.40
70954;BME280;58618;47.490;8.736;2023-02-12T11:50:27;98281.53;;;6.93;80.87
70954;BME280;58618;47.490;8.736;2023-02-12T11:52:59;98287.44;;;7.00;79.71
70954;BME280;58618;47.490;8.736;2023-02-12T11:55:31;98263.00;;;6.98;79.13
70954;BME280;58618;47.490;8.736;2023-02-12T11:58:06;98281.50;;;7.00;79.05
70954;BME280;58618;47.490;8.736;2023-02-12T12:00:45;98232.69;;;6.82;78.89
70954;BME280;58618;47.490;8.736;2023-02-12T12:03:21;98270.47;;;6.99;78.53
70954;BME280;58618;47.490;8.736;2023-02-12T12:05:52;98263.53;;;7.06;79.14
70954;BME280;58618;47.490;8.736;2023-02-12T12:08:24;98268.41;;;7.14;78.31
70954;BME280;58618;47.490;8.736;2023-02-12T12:10:58;98267.53;;;7.27;78.35
70954;BME280;58618;47.490;8.736;2023-02-12T12:13:31;98271.41;;;7.36;77.84
70954;BME280;58618;47.490;8.736;2023-02-12T12:16:07;98260.78;;;7.33;77.92
70954;BME280;58618;47.490;8.736;2023-02-12T12:18:55;98260.94;;;7.38;77.76
70954;BME280;58618;47.490;8.736;2023-02-12T12:21:47;98265.09;;;7.39;78.57
70954;BME280;58618;47.490;8.736;2023-02-12T12:24:21;98256.72;;;7.50;78.93
70954;BME280;58618;47.490;8.736;2023-02-12T12:26:57;98261.75;;;7.63;77.66
70954;BME280;58618;47.490;8.736;2023-02-12T12:29:38;98251.53;;;7.56;79.23
70954;BME280;58618;47.490;8.736;2023-02-12T12:32:11;98251.75;;;7.55;79.36
70954;BME280;58618;47.490;8.736;2023-02-12T12:34:42;98249.09;;;7.61;80.21
70954;BME280;58618;47.490;8.736;2023-02-12T12:37:29;98246.72;;;7.67;79.08
70954;BME280;58618;47.490;8.736;2023-02-12T12:40:24;98246.78;;;7.60;79.40
70954;BME280;58618;47.490;8.736;2023-02-12T12:43:11;98237.75;;;7.76;76.99
70954;BME280;58618;47.490;8.736;2023-02-12T12:46:25;98232.28;;;7.90;75.33
70954;BME280;58618;47.490;8.736;2023-02-12T12:49:17;98227.88;;;7.97;74.84
70954;BME280;58618;47.490;8.736;2023-02-12T12:52:20;98203.56;;;7.75;75.89
70954;BME280;58618;47.490;8.736;2023-02-12T12:55:02;98207.44;;;7.84;75.56
70954;BME280;58618;47.490;8.736;2023-02-12T12:57:41;98207.53;;;7.96;74.42
70954;BME280;58618;47.490;8.736;2023-02-12T13:00:47;98215.25;;;8.14;73.57
70954;BME280;58618;47.490;8.736;2023-02-12T13:03:35;98205.81;;;8.26;74.25
70954;BME280;58618;47.490;8.736;2023-02-12T13:06:25;98214.31;;;8.09;73.82
70954;BME280;58618;47.490;8.736;2023-02-12T13:09:14;98213.03;;;8.18;74.17
70954;BME280;58618;47.490;8.736;2023-02-12T13:11:53;98207.59;;;8.07;74.26
70954;BME280;58618;47.490;8.736;2023-02-12T13:14:34;98213.44;;;8.15;74.28
70954;BME280;58618;47.490;8.736;2023-02-12T13:17:12;98215.25;;;8.14;74.59
70954;BME280;58618;47.490;8.736;2023-02-12T13:19:54;98213.03;;;8.18;74.52
70954;BME280;58618;47.490;8.736;2023-02-12T13:22:29;98217.25;;;8.30;74.41
70954;BME280;58618;47.490;8.736;2023-02-12T13:25:04;98212.97;;;8.24;76.07